Arvada, CO (80002)

9:29 AM MST on February 06, 2016 (GMT -0700)
Hoyt Ct | | Change Station
CLOSE
Current Station
Personal Weather Station
Location: Arvada, CO
Elevation: 5512 ft
Nearby Weather Stations

Elev 5512 ft 39.82 °N, 105.10 °W | Updated 14 minutes ago

Partly Cloudy
Partly Cloudy
34.2 °F
Feels Like 34 °F
N
0.0
Wind Variable Wind from NE

Today
High -- | Low -- °F
--% Chance of Precip.
Yesterday
High -- | Low -- °F
Precip. -- in
Pressure 30.19 in
Visibility 70.0 miles
Clouds Scattered Clouds 18000 ft
Windchill 34 °F
Dew Point 17 °F
Humidity 49%
Rainfall 0.00 in
Snow Depth Not available.
7:03 AM 5:25 PM
Waning Crescent, 5% visible
METAR KBJC 061455Z 27005KT 70SM SCT180 M02/M13 A3019
Pressure 30.19 in
Visibility 70.0 miles
Clouds Scattered Clouds 18000 ft
Windchill 34 °F
Dew Point 17 °F
Humidity 49%
Rainfall 0.00 in
Snow Depth Not available.
7:03 AM 5:25 PM
Waning Crescent, 5% visible
METAR KBJC 061455Z 27005KT 70SM SCT180 M02/M13 A3019

10-Day Weather Forecast

Almanac

Astronomy

Feb. 06, 2016 Rise Set
Actual Time
Civil Twilight
Nautical Twilight
Astronomical Twilight
Moon
Length of Visible Light
Length of Day
Tomorrow will be .
, % of the Moon is Illuminated

Today's Extremes

State Highs State Lows

Community

WunderPhotos

Upload Photos

1,891,013 photos uploaded!

WunderBlog® & News

Nearby

Air Quality

  Air Quality AQ Index Pollutant
Not available.

Snow Depth

Station Depth Elevation

Earthquake Activity

City Distance Mag. Time & Date
Minimum magnitude displayed is 2.5.

Coastal Water Temperatures

Place Temperature

Stations

Nearby Weather Stations

Station Location Temp. Windchill Dew Point Humidity Wind Precip. Elev Updated Type
                   

Watches & Warnings

There are currently no watches in effect.